Time;durP1;ratioP1;P1;durP2;ratioP2;P2;SDS_P1;SDS_P2;PMS_P1;PMS_P2;Temp;Humidity;BMP_temperature;BMP_pressure;BME280_temperature;BME280_humidity;BME280_pressure;Samples;Min_cycle;Max_cycle;Signal;HPM_P1;HPM_P2
2023/07/14 00:00:13;;;;;;;0.90;0.90;;;;;;;-128.00;-1.00;-1.00;97862;297;1003583;-33
2023/07/14 00:02:38;;;;;;;2.50;1.40;;;;;;;-128.00;-1.00;-1.00;97921;297;1004536;-30
2023/07/14 00:05:04;;;;;;;4.20;0.60;;;;;;;-128.00;-1.00;-1.00;97841;297;1003066;-34
2023/07/14 00:07:30;;;;;;;1.50;0.70;;;;;;;-128.00;-1.00;-1.00;97854;297;1004418;-33
2023/07/14 00:09:56;;;;;;;3.90;1.60;;;;;;;-128.00;-1.00;-1.00;97829;297;1003044;-34
2023/07/14 00:12:21;;;;;;;4.50;1.90;;;;;;;-128.00;-1.00;-1.00;97788;297;1003070;-34
2023/07/14 00:14:47;;;;;;;2.00;1.50;;;;;;;-128.00;-1.00;-1.00;97798;297;1003450;-29
2023/07/14 00:17:13;;;;;;;0.60;0.60;;;;;;;-128.00;-1.00;-1.00;97868;298;1004136;-29
2023/07/14 00:19:39;;;;;;;1.80;1.30;;;;;;;-128.00;-1.00;-1.00;97798;297;1003998;-30
2023/07/14 00:22:12;;;;;;;2.40;1.40;;;;;;;-128.00;-1.00;-1.00;97733;294;1002945;-34
2023/07/14 00:24:38;;;;;;;1.90;1.30;;;;;;;-128.00;-1.00;-1.00;97736;298;1003304;-30
2023/07/14 00:27:08;;;;;;;1.40;1.00;;;;;;;-128.00;-1.00;-1.00;97763;297;1004120;-34
2023/07/14 00:29:38;;;;;;;3.30;1.50;;;;;;;-128.00;-1.00;-1.00;97688;299;1003693;-32
2023/07/14 00:32:13;;;;;;;6.10;1.20;;;;;;;-128.00;-1.00;-1.00;97877;297;1003269;-30
2023/07/14 00:34:39;;;;;;;2.70;1.00;;;;;;;-128.00;-1.00;-1.00;97864;297;1003377;-29
2023/07/14 00:37:05;;;;;;;2.60;1.20;;;;;;;-128.00;-1.00;-1.00;97707;287;1004648;-34
2023/07/14 01:19:40;;;;;;;2.80;1.90;;;;;;;-99.73;19.20;19899.09;19614;294;8046984;-32
2023/07/14 01:22:38;;;;;;;2.50;2.10;;;;;;;-128.00;-1.00;-1.00;18136;346;7505037;-33
2023/07/14 01:25:21;;;;;;;9.40;2.00;;;;;;;-128.00;-1.00;-1.00;18530;294;7506290;-32
2023/07/14 01:27:47;;;;;;;2.20;1.80;;;;;;;-128.00;-1.00;-1.00;18495;293;7506279;-33
2023/07/14 01:30:14;;;;;;;1.90;1.60;;;;;;;-128.00;-1.00;-1.00;18490;293;7504378;-34
2023/07/14 01:32:45;;;;;;;2.20;2.00;;;;;;;-128.00;-1.00;-1.00;18544;345;7504575;-34
2023/07/14 01:35:12;;;;;;;1.50;1.40;;;;;;;-128.00;-1.00;-1.00;18537;293;7504169;-30
2023/07/14 01:37:39;;;;;;;2.50;1.80;;;;;;;-128.00;-1.00;-1.00;18456;294;7504130;-32
2023/07/14 01:40:11;;;;;;;1.70;1.30;;;;;;;-128.00;-1.00;-1.00;18506;317;7505261;-32
2023/07/14 01:42:40;;;;;;;3.10;1.80;;;;;;;-128.00;-1.00;-1.00;18529;293;7504321;-35
2023/07/14 01:45:10;;;;;;;2.50;1.80;;;;;;;-128.00;-1.00;-1.00;18532;293;7504841;-31
2023/07/14 01:47:36;;;;;;;3.50;1.60;;;;;;;-128.00;-1.00;-1.00;18499;293;7504616;-35
2023/07/14 01:50:03;;;;;;;7.40;2.20;;;;;;;-128.00;-1.00;-1.00;18910;309;7504264;-30
2023/07/14 01:52:30;;;;;;;2.40;1.50;;;;;;;-128.00;-1.00;-1.00;18483;294;7505965;-30
2023/07/14 01:54:58;;;;;;;1.40;1.20;;;;;;;-128.00;-1.00;-1.00;18503;294;7504628;-31
2023/07/14 01:57:24;;;;;;;2.50;1.90;;;;;;;-128.00;-1.00;-1.00;18505;293;7506555;-35
2023/07/14 01:59:53;;;;;;;4.70;1.90;;;;;;;-128.00;-1.00;-1.00;18496;293;7506049;-34
2023/07/14 02:02:24;;;;;;;2.50;1.50;;;;;;;-128.00;-1.00;-1.00;18502;294;7504962;-32
2023/07/14 02:04:50;;;;;;;2.30;1.30;;;;;;;-128.00;-1.00;-1.00;18479;294;7504412;-35
2023/07/14 02:07:15;;;;;;;1.70;1.60;;;;;;;-128.00;-1.00;-1.00;18548;293;7505813;-35
2023/07/14 02:09:41;;;;;;;5.80;2.00;;;;;;;-128.00;-1.00;-1.00;18472;294;7506283;-32
2023/07/14 02:12:11;;;;;;;2.20;2.00;;;;;;;-128.00;-1.00;-1.00;18516;293;7504891;-31
2023/07/14 02:14:42;;;;;;;2.80;1.50;;;;;;;-128.00;-1.00;-1.00;18524;293;7506315;-35
2023/07/14 02:17:12;;;;;;;1.60;1.50;;;;;;;-128.00;-1.00;-1.00;18503;293;7504533;-30
2023/07/14 02:19:38;;;;;;;1.90;1.80;;;;;;;-128.00;-1.00;-1.00;18480;293;7504550;-30
2023/07/14 02:22:05;;;;;;;2.00;1.60;;;;;;;-128.00;-1.00;-1.00;18876;293;7505118;-37
2023/07/14 02:24:31;;;;;;;3.50;1.20;;;;;;;-128.00;-1.00;-1.00;18469;346;7506455;-32
2023/07/14 02:27:02;;;;;;;2.30;2.10;;;;;;;-128.00;-1.00;-1.00;18502;322;7504950;-31
2023/07/14 02:29:28;;;;;;;2.20;1.20;;;;;;;-128.00;-1.00;-1.00;18493;293;7506448;-31
2023/07/14 02:32:15;;;;;;;2.50;1.70;;;;;;;-128.00;-1.00;-1.00;18498;294;7505836;-35
2023/07/14 02:34:44;;;;;;;2.60;1.40;;;;;;;-128.00;-1.00;-1.00;18488;293;7504295;-35
2023/07/14 02:37:39;;;;;;;1.10;1.00;;;;;;;-128.00;-1.00;-1.00;18500;338;7504808;-32
2023/07/14 02:40:06;;;;;;;1.90;1.50;;;;;;;-128.00;-1.00;-1.00;18503;293;7504616;-30
2023/07/14 02:42:39;;;;;;;2.80;1.60;;;;;;;-128.00;-1.00;-1.00;18480;294;7504224;-31
2023/07/14 02:45:05;;;;;;;4.10;2.90;;;;;;;-128.00;-1.00;-1.00;18493;293;7504119;-35
2023/07/14 02:47:30;;;;;;;2.90;2.50;;;;;;;-128.00;-1.00;-1.00;18510;293;7505863;-31
2023/07/14 02:49:57;;;;;;;7.00;3.00;;;;;;;-128.00;-1.00;-1.00;18898;293;7504636;-35
2023/07/14 02:52:23;;;;;;;4.10;2.70;;;;;;;-128.00;-1.00;-1.00;18900;294;7504850;-32
2023/07/14 02:54:49;;;;;;;1.80;1.70;;;;;;;-128.00;-1.00;-1.00;18880;293;7505235;-31
2023/07/14 02:57:15;;;;;;;5.70;2.10;;;;;;;-128.00;-1.00;-1.00;18933;293;7504634;-31
2023/07/14 02:59:41;;;;;;;4.50;2.50;;;;;;;-128.00;-1.00;-1.00;18889;293;7504905;-30
2023/07/14 03:02:07;;;;;;;6.50;4.20;;;;;;;-128.00;-1.00;-1.00;18918;346;7504464;-33
2023/07/14 03:04:34;;;;;;;6.00;5.00;;;;;;;-128.00;-1.00;-1.00;18891;293;7504164;-34
2023/07/14 03:07:01;;;;;;;3.70;3.40;;;;;;;-128.00;-1.00;-1.00;18502;293;7504930;-35
2023/07/14 03:09:26;;;;;;;7.30;6.00;;;;;;;-128.00;-1.00;-1.00;18473;293;7505910;-31
2023/07/14 03:11:52;;;;;;;17.10;11.30;;;;;;;-128.00;-1.00;-1.00;18904;293;7504521;-34
2023/07/14 03:14:18;;;;;;;6.80;6.20;;;;;;;-128.00;-1.00;-1.00;18889;322;7504978;-36
2023/07/14 03:16:45;;;;;;;11.70;10.60;;;;;;;-128.00;-1.00;-1.00;18876;294;7504395;-32
2023/07/14 03:19:11;;;;;;;11.40;9.20;;;;;;;-128.00;-1.00;-1.00;18911;293;7504764;-36
2023/07/14 03:21:38;;;;;;;7.00;6.30;;;;;;;-128.00;-1.00;-1.00;18903;293;7504773;-32
2023/07/14 03:24:05;;;;;;;5.50;2.40;;;;;;;-128.00;-1.00;-1.00;18469;346;7506616;-34
2023/07/14 03:26:31;;;;;;;2.30;2.10;;;;;;;-128.00;-1.00;-1.00;18493;293;7505933;-35
2023/07/14 03:28:56;;;;;;;3.30;3.00;;;;;;;-128.00;-1.00;-1.00;18503;293;7504143;-35
2023/07/14 03:31:22;;;;;;;1.70;1.60;;;;;;;-128.00;-1.00;-1.00;18484;346;7504627;-35
2023/07/14 03:33:47;;;;;;;2.50;2.00;;;;;;;-128.00;-1.00;-1.00;18485;293;7506000;-31
2023/07/14 03:36:14;;;;;;;7.00;2.70;;;;;;;-128.00;-1.00;-1.00;18899;346;7506064;-31
2023/07/14 03:38:42;;;;;;;8.60;2.40;;;;;;;-128.00;-1.00;-1.00;18896;306;7505533;-31
2023/07/14 03:41:08;;;;;;;2.80;2.00;;;;;;;-128.00;-1.00;-1.00;18482;293;7505562;-31
2023/07/14 03:43:34;;;;;;;3.50;2.90;;;;;;;-128.00;-1.00;-1.00;18513;293;7504510;-32
2023/07/14 03:45:59;;;;;;;2.10;1.90;;;;;;;-128.00;-1.00;-1.00;18488;293;7507117;-36
2023/07/14 03:48:25;;;;;;;6.40;2.30;;;;;;;-128.00;-1.00;-1.00;18503;293;7506324;-36
2023/07/14 03:50:51;;;;;;;6.30;2.90;;;;;;;-128.00;-1.00;-1.00;18471;293;7505720;-33
2023/07/14 03:53:17;;;;;;;3.90;2.80;;;;;;;-128.00;-1.00;-1.00;18887;298;7504412;-36
2023/07/14 03:55:43;;;;;;;2.90;2.60;;;;;;;-128.00;-1.00;-1.00;18883;293;7505266;-35
2023/07/14 03:58:09;;;;;;;6.40;3.20;;;;;;;-128.00;-1.00;-1.00;18917;293;7504727;-35
2023/07/14 04:00:36;;;;;;;7.10;3.20;;;;;;;-128.00;-1.00;-1.00;18914;294;7506147;-34
2023/07/14 04:03:02;;;;;;;4.70;3.60;;;;;;;-128.00;-1.00;-1.00;18893;286;7504497;-36
2023/07/14 04:05:28;;;;;;;5.20;3.30;;;;;;;-128.00;-1.00;-1.00;18890;329;7504214;-32
2023/07/14 04:07:54;;;;;;;5.80;4.10;;;;;;;-128.00;-1.00;-1.00;18908;293;7504257;-32
2023/07/14 04:10:20;;;;;;;7.20;2.50;;;;;;;-128.00;-1.00;-1.00;18868;293;7504911;-38
2023/07/14 04:12:48;;;;;;;13.40;3.10;;;;;;;-128.00;-1.00;-1.00;18867;346;7504807;-37
2023/07/14 04:15:14;;;;;;;2.60;1.80;;;;;;;-128.00;-1.00;-1.00;18483;293;7504163;-37
2023/07/14 04:17:40;;;;;;;1.60;1.40;;;;;;;-128.00;-1.00;-1.00;18497;293;7504907;-33
2023/07/14 04:20:07;;;;;;;2.50;2.00;;;;;;;-128.00;-1.00;-1.00;18463;294;7505860;-33
2023/07/14 04:22:33;;;;;;;1.80;1.70;;;;;;;-128.00;-1.00;-1.00;18478;334;7506846;-32
2023/07/14 04:24:58;;;;;;;2.60;2.40;;;;;;;-128.00;-1.00;-1.00;18521;293;7504682;-34
2023/07/14 04:27:28;;;;;;;7.70;3.10;;;;;;;-128.00;-1.00;-1.00;18484;334;7506420;-36
2023/07/14 04:29:54;;;;;;;2.40;2.20;;;;;;;-128.00;-1.00;-1.00;18498;293;7504416;-36
2023/07/14 04:32:20;;;;;;;2.10;1.70;;;;;;;-128.00;-1.00;-1.00;18497;293;7504565;-32
2023/07/14 04:34:45;;;;;;;3.90;2.80;;;;;;;-128.00;-1.00;-1.00;18511;293;7505076;-36
2023/07/14 04:37:11;;;;;;;3.40;1.90;;;;;;;-128.00;-1.00;-1.00;18479;293;7506270;-36
2023/07/14 04:39:37;;;;;;;5.00;2.30;;;;;;;-128.00;-1.00;-1.00;18885;293;7505228;-31
2023/07/14 04:42:04;;;;;;;5.60;2.50;;;;;;;-128.00;-1.00;-1.00;18879;293;7505503;-30
2023/07/14 04:44:29;;;;;;;3.30;2.20;;;;;;;-128.00;-1.00;-1.00;18509;293;7505939;-33
2023/07/14 04:46:58;;;;;;;3.60;1.70;;;;;;;-128.00;-1.00;-1.00;18880;317;7504321;-33
2023/07/14 04:49:24;;;;;;;2.80;2.30;;;;;;;-128.00;-1.00;-1.00;18512;293;7504397;-31
2023/07/14 04:51:50;;;;;;;2.90;2.60;;;;;;;-128.00;-1.00;-1.00;18500;338;7504716;-32
2023/07/14 04:54:15;;;;;;;2.60;2.40;;;;;;;-128.00;-1.00;-1.00;18481;282;7504574;-35
2023/07/14 04:56:43;;;;;;;2.60;2.20;;;;;;;-128.00;-1.00;-1.00;18497;293;7505005;-33
2023/07/14 04:59:09;;;;;;;3.30;2.90;;;;;;;-128.00;-1.00;-1.00;18441;310;7506102;-36
2023/07/14 05:01:34;;;;;;;6.70;2.60;;;;;;;-128.00;-1.00;-1.00;18513;293;7504805;-35
2023/07/14 05:04:00;;;;;;;2.60;2.30;;;;;;;-128.00;-1.00;-1.00;18484;294;7504349;-31
2023/07/14 05:06:26;;;;;;;3.20;2.90;;;;;;;-128.00;-1.00;-1.00;18901;293;7504583;-34
2023/07/14 05:08:52;;;;;;;4.40;3.50;;;;;;;-128.00;-1.00;-1.00;18908;293;7504176;-36
2023/07/14 05:11:19;;;;;;;8.90;3.30;;;;;;;-128.00;-1.00;-1.00;18885;294;7504377;-35
2023/07/14 05:13:45;;;;;;;5.00;2.20;;;;;;;-128.00;-1.00;-1.00;18890;302;7504396;-32
2023/07/14 05:16:11;;;;;;;5.70;3.10;;;;;;;-128.00;-1.00;-1.00;18455;322;7504613;-32
2023/07/14 05:18:37;;;;;;;4.00;3.20;;;;;;;-128.00;-1.00;-1.00;18500;293;7506100;-35
2023/07/14 05:21:05;;;;;;;2.30;2.10;;;;;;;-128.00;-1.00;-1.00;18501;338;7506001;-31
2023/07/14 05:23:30;;;;;;;4.10;3.30;;;;;;;-128.00;-1.00;-1.00;18493;293;7506722;-32
2023/07/14 05:25:56;;;;;;;3.10;2.80;;;;;;;-128.00;-1.00;-1.00;18494;293;7504301;-32
2023/07/14 05:28:22;;;;;;;2.80;2.40;;;;;;;-128.00;-1.00;-1.00;18475;293;7504926;-36
2023/07/14 05:30:48;;;;;;;8.50;3.20;;;;;;;-128.00;-1.00;-1.00;18490;295;7504816;-32
2023/07/14 05:33:16;;;;;;;3.70;3.10;;;;;;;-128.00;-1.00;-1.00;18892;317;7506390;-37
2023/07/14 05:35:43;;;;;;;2.50;2.30;;;;;;;-128.00;-1.00;-1.00;18514;294;7504443;-36
2023/07/14 05:38:08;;;;;;;6.30;3.10;;;;;;;-128.00;-1.00;-1.00;18528;293;7506187;-36
2023/07/14 05:40:34;;;;;;;4.20;3.30;;;;;;;-128.00;-1.00;-1.00;18886;294;7505548;-35
2023/07/14 05:43:00;;;;;;;10.20;2.80;;;;;;;-128.00;-1.00;-1.00;18908;293;7504638;-31
2023/07/14 05:45:26;;;;;;;6.70;2.90;;;;;;;-128.00;-1.00;-1.00;18891;293;7504623;-34
2023/07/14 05:47:53;;;;;;;3.30;3.00;;;;;;;-128.00;-1.00;-1.00;18875;293;7504361;-35
2023/07/14 05:50:19;;;;;;;3.20;2.70;;;;;;;-128.00;-1.00;-1.00;18887;286;7505291;-36
2023/07/14 05:52:46;;;;;;;8.90;2.30;;;;;;;-128.00;-1.00;-1.00;18870;295;7504777;-36
2023/07/14 05:55:12;;;;;;;2.90;2.10;;;;;;;-128.00;-1.00;-1.00;18497;293;7506013;-36
2023/07/14 05:57:37;;;;;;;5.90;3.10;;;;;;;-128.00;-1.00;-1.00;18504;293;7504901;-33
2023/07/14 06:00:06;;;;;;;2.20;1.60;;;;;;;-128.00;-1.00;-1.00;18480;313;7504929;-36
2023/07/14 06:02:32;;;;;;;2.00;1.60;;;;;;;-128.00;-1.00;-1.00;18486;293;7504884;-32
2023/07/14 06:05:00;;;;;;;2.60;2.30;;;;;;;-128.00;-1.00;-1.00;18459;345;7504587;-35
2023/07/14 06:07:25;;;;;;;4.40;2.70;;;;;;;-128.00;-1.00;-1.00;18462;293;7504615;-32
2023/07/14 06:09:51;;;;;;;11.70;2.20;;;;;;;-128.00;-1.00;-1.00;18509;338;7505949;-32
2023/07/14 06:12:17;;;;;;;5.70;2.80;;;;;;;-128.00;-1.00;-1.00;18886;293;7504156;-36
2023/07/14 06:14:43;;;;;;;6.80;2.90;;;;;;;-128.00;-1.00;-1.00;18877;295;7505068;-34
2023/07/14 06:17:10;;;;;;;7.40;3.20;;;;;;;-128.00;-1.00;-1.00;18868;295;7505015;-35
2023/07/14 06:19:39;;;;;;;3.80;3.40;;;;;;;-128.00;-1.00;-1.00;18873;346;7504857;-37
2023/07/14 06:22:06;;;;;;;3.60;3.30;;;;;;;-128.00;-1.00;-1.00;18498;294;7506020;-37
2023/07/14 06:24:32;;;;;;;9.60;2.40;;;;;;;-128.00;-1.00;-1.00;18501;293;7505984;-37
2023/07/14 06:26:58;;;;;;;8.40;2.40;;;;;;;-128.00;-1.00;-1.00;18486;293;7506864;-36
2023/07/14 06:29:24;;;;;;;2.80;1.90;;;;;;;-128.00;-1.00;-1.00;18878;293;7504312;-35
2023/07/14 06:31:50;;;;;;;2.70;2.30;;;;;;;-128.00;-1.00;-1.00;18916;293;7504332;-32
2023/07/14 06:34:16;;;;;;;4.30;2.50;;;;;;;-128.00;-1.00;-1.00;18931;346;7505090;-32
2023/07/14 06:36:42;;;;;;;4.00;3.00;;;;;;;-128.00;-1.00;-1.00;18867;293;7505032;-32
2023/07/14 06:39:08;;;;;;;4.70;3.10;;;;;;;-128.00;-1.00;-1.00;18898;293;7504501;-37
2023/07/14 06:41:36;;;;;;;4.30;2.30;;;;;;;-128.00;-1.00;-1.00;18904;293;7504759;-32
2023/07/14 06:44:02;;;;;;;3.30;2.50;;;;;;;-128.00;-1.00;-1.00;18520;293;7504412;-36
2023/07/14 06:46:29;;;;;;;2.40;1.70;;;;;;;-128.00;-1.00;-1.00;18447;288;7504726;-36
2023/07/14 06:48:57;;;;;;;2.90;1.60;;;;;;;-128.00;-1.00;-1.00;18502;293;7504990;-35
2023/07/14 06:51:23;;;;;;;4.10;3.30;;;;;;;-128.00;-1.00;-1.00;18511;293;7505040;-36
2023/07/14 06:53:49;;;;;;;2.70;1.30;;;;;;;-128.00;-1.00;-1.00;18471;282;7504872;-32
2023/07/14 06:56:15;;;;;;;2.90;2.40;;;;;;;-128.00;-1.00;-1.00;18479;295;7504624;-35
2023/07/14 06:58:41;;;;;;;5.40;2.90;;;;;;;-128.00;-1.00;-1.00;18488;294;7506420;-36
2023/07/14 07:01:07;;;;;;;4.70;2.10;;;;;;;-128.00;-1.00;-1.00;18468;293;7504322;-32
2023/07/14 07:03:34;;;;;;;3.70;2.60;;;;;;;-128.00;-1.00;-1.00;18498;293;7506036;-32
2023/07/14 07:06:00;;;;;;;3.20;1.90;;;;;;;-128.00;-1.00;-1.00;18456;295;7506446;-31
2023/07/14 07:08:26;;;;;;;2.20;2.00;;;;;;;-128.00;-1.00;-1.00;18501;334;7504356;-35
2023/07/14 07:10:52;;;;;;;2.20;1.90;;;;;;;-128.00;-1.00;-1.00;18502;294;7505052;-34
2023/07/14 07:13:18;;;;;;;4.10;1.80;;;;;;;-128.00;-1.00;-1.00;18495;293;7504360;-31
2023/07/14 07:15:43;;;;;;;3.10;2.10;;;;;;;-128.00;-1.00;-1.00;18481;293;7504348;-31
2023/07/14 07:18:09;;;;;;;2.70;2.10;;;;;;;-128.00;-1.00;-1.00;18502;295;7505146;-35
2023/07/14 07:20:36;;;;;;;3.70;2.00;;;;;;;-128.00;-1.00;-1.00;18479;295;7504574;-35
2023/07/14 07:23:01;;;;;;;2.40;2.20;;;;;;;-128.00;-1.00;-1.00;18516;293;7506043;-31
2023/07/14 07:25:27;;;;;;;14.20;2.00;;;;;;;-128.00;-1.00;-1.00;18499;293;7506606;-36
2023/07/14 07:27:53;;;;;;;2.20;1.30;;;;;;;-128.00;-1.00;-1.00;18502;293;7504725;-30
2023/07/14 07:30:19;;;;;;;2.00;1.40;;;;;;;-128.00;-1.00;-1.00;18893;293;7505592;-35
2023/07/14 07:32:46;;;;;;;3.20;1.60;;;;;;;-128.00;-1.00;-1.00;18920;293;7504876;-33
2023/07/14 07:35:12;;;;;;;8.10;1.20;;;;;;;-128.00;-1.00;-1.00;18517;293;7505298;-36
2023/07/14 07:37:38;;;;;;;1.90;1.40;;;;;;;-128.00;-1.00;-1.00;18514;293;7504515;-36
2023/07/14 07:40:06;;;;;;;1.50;1.20;;;;;;;-128.00;-1.00;-1.00;18470;336;7505627;-37
2023/07/14 07:42:34;;;;;;;2.10;1.50;;;;;;;-128.00;-1.00;-1.00;18462;295;7504467;-32
2023/07/14 07:45:00;;;;;;;3.10;1.90;;;;;;;-128.00;-1.00;-1.00;18487;317;7504094;-36
2023/07/14 07:47:26;;;;;;;5.10;2.20;;;;;;;-128.00;-1.00;-1.00;18495;293;7505395;-36
2023/07/14 07:49:52;;;;;;;2.80;1.60;;;;;;;-128.00;-1.00;-1.00;18515;306;7505952;-36
2023/07/14 07:52:18;;;;;;;3.40;1.40;;;;;;;-128.00;-1.00;-1.00;18523;310;7504541;-32
2023/07/14 07:54:43;;;;;;;4.80;1.40;;;;;;;-128.00;-1.00;-1.00;18478;310;7504155;-32
2023/07/14 07:57:10;;;;;;;2.40;1.60;;;;;;;-128.00;-1.00;-1.00;18912;305;7504352;-36
2023/07/14 07:59:36;;;;;;;1.90;1.30;;;;;;;-128.00;-1.00;-1.00;18505;293;7505161;-35
2023/07/14 08:02:02;;;;;;;1.20;1.00;;;;;;;-128.00;-1.00;-1.00;18477;311;7504583;-32
2023/07/14 08:04:28;;;;;;;2.10;1.70;;;;;;;-128.00;-1.00;-1.00;18466;295;7504877;-32
2023/07/14 08:06:53;;;;;;;3.40;1.90;;;;;;;-128.00;-1.00;-1.00;18505;293;7504286;-35
2023/07/14 08:09:19;;;;;;;1.80;1.70;;;;;;;-128.00;-1.00;-1.00;18464;335;7506289;-36
2023/07/14 08:11:45;;;;;;;1.20;1.00;;;;;;;-128.00;-1.00;-1.00;18521;293;7505010;-38
2023/07/14 08:14:14;;;;;;;10.90;2.30;;;;;;;-128.00;-1.00;-1.00;18483;334;7506022;-36
2023/07/14 08:16:40;;;;;;;2.00;1.00;;;;;;;-128.00;-1.00;-1.00;18510;293;7505342;-36
2023/07/14 08:19:06;;;;;;;5.20;1.60;;;;;;;-128.00;-1.00;-1.00;18495;317;7504550;-35
2023/07/14 08:21:31;;;;;;;1.90;1.00;;;;;;;-128.00;-1.00;-1.00;18485;294;7504816;-33
2023/07/14 08:23:58;;;;;;;2.00;1.10;;;;;;;-128.00;-1.00;-1.00;18505;293;7506112;-36
2023/07/14 08:26:23;;;;;;;6.80;1.50;;;;;;;-128.00;-1.00;-1.00;18504;293;7506000;-32
2023/07/14 08:28:49;;;;;;;1.00;0.70;;;;;;;-128.00;-1.00;-1.00;18511;293;7505078;-31
2023/07/14 08:31:15;;;;;;;7.50;1.20;;;;;;;-128.00;-1.00;-1.00;18918;334;7504449;-33
2023/07/14 08:33:43;;;;;;;2.30;1.50;;;;;;;-128.00;-1.00;-1.00;18898;293;7505461;-32
2023/07/14 08:36:11;;;;;;;1.10;0.90;;;;;;;-128.00;-1.00;-1.00;18478;293;7504638;-31
2023/07/14 08:38:37;;;;;;;1.60;1.00;;;;;;;-128.00;-1.00;-1.00;18475;295;7504777;-38
2023/07/14 08:41:09;;;;;;;1.30;0.90;;;;;;;-128.00;-1.00;-1.00;18511;334;7504218;-35
2023/07/14 08:43:50;;;;;;;2.70;1.00;;;;;;;-128.00;-1.00;-1.00;18494;329;7506220;-32
2023/07/14 08:46:26;;;;;;;10.00;1.00;;;;;;;-128.00;-1.00;-1.00;18462;337;7504314;-36
2023/07/14 08:49:03;;;;;;;0.70;0.70;;;;;;;-128.00;-1.00;-1.00;18469;335;7506100;-36
2023/07/14 08:51:44;;;;;;;1.30;0.60;;;;;;;-128.00;-1.00;-1.00;18454;293;7506207;-36
2023/07/14 08:54:19;;;;;;;2.70;0.70;;;;;;;-128.00;-1.00;-1.00;18487;317;7504540;-32
2023/07/14 08:56:45;;;;;;;1.80;1.10;;;;;;;-128.00;-1.00;-1.00;18482;346;7505971;-36
2023/07/14 08:59:14;;;;;;;1.40;0.80;;;;;;;-128.00;-1.00;-1.00;18508;293;7506035;-36
2023/07/14 09:01:53;;;;;;;2.20;1.10;;;;;;;-128.00;-1.00;-1.00;18487;335;7504964;-32
2023/07/14 09:04:25;;;;;;;2.20;0.90;;;;;;;-128.00;-1.00;-1.00;18485;317;7505749;-33
2023/07/14 09:06:51;;;;;;;3.10;0.90;;;;;;;-128.00;-1.00;-1.00;18473;295;7505189;-32
2023/07/14 09:09:19;;;;;;;1.10;0.90;;;;;;;-128.00;-1.00;-1.00;18516;338;7504568;-38
2023/07/14 09:12:02;;;;;;;0.70;0.50;;;;;;;-128.00;-1.00;-1.00;18470;282;7504454;-35
2023/07/14 09:14:48;;;;;;;0.80;0.70;;;;;;;-128.00;-1.00;-1.00;18501;293;7504269;-31
2023/07/14 09:17:36;;;;;;;1.00;0.90;;;;;;;-128.00;-1.00;-1.00;18483;293;7505337;-35
2023/07/14 09:20:23;;;;;;;3.10;1.20;;;;;;;-128.00;-1.00;-1.00;18478;293;7504400;-36
2023/07/14 09:23:17;;;;;;;1.00;0.60;;;;;;;-128.00;-1.00;-1.00;18186;345;8008382;-36
2023/07/14 09:25:56;;;;;;;1.10;0.70;;;;;;;-128.00;-1.00;-1.00;18474;293;7504510;-36
2023/07/14 09:28:33;;;;;;;7.20;0.90;;;;;;;-128.00;-1.00;-1.00;18507;334;7506281;-32
2023/07/14 09:30:59;;;;;;;1.00;0.80;;;;;;;-128.00;-1.00;-1.00;18473;295;7504352;-38
2023/07/14 09:33:26;;;;;;;1.20;0.90;;;;;;;-128.00;-1.00;-1.00;18476;295;7506273;-35
2023/07/14 09:35:51;;;;;;;2.30;0.80;;;;;;;-128.00;-1.00;-1.00;18499;318;7504513;-35
2023/07/14 09:38:22;;;;;;;2.40;0.70;;;;;;;-128.00;-1.00;-1.00;18484;293;7505305;-35
2023/07/14 09:40:49;;;;;;;;;;;;;;;-128.00;-1.00;-1.00;18531;293;7504363;-35
2023/07/14 09:43:14;;;;;;;6.80;0.80;;;;;;;-128.00;-1.00;-1.00;18490;294;7505818;-33
2023/07/14 09:45:40;;;;;;;1.20;0.60;;;;;;;-128.00;-1.00;-1.00;18484;293;7505596;-32
2023/07/14 09:48:14;;;;;;;0.40;0.30;;;;;;;-128.00;-1.00;-1.00;18479;293;7506928;-32
2023/07/14 09:50:45;;;;;;;0.90;0.50;;;;;;;-128.00;-1.00;-1.00;18488;293;7505036;-35
2023/07/14 09:53:11;;;;;;;0.60;0.30;;;;;;;-128.00;-1.00;-1.00;18489;293;7505297;-32
2023/07/14 09:55:52;;;;;;;1.10;0.50;;;;;;;-128.00;-1.00;-1.00;18871;293;7504797;-32
2023/07/14 09:58:20;;;;;;;0.60;0.20;;;;;;;-128.00;-1.00;-1.00;18505;293;7505331;-34
2023/07/14 10:00:46;;;;;;;0.50;0.40;;;;;;;-128.00;-1.00;-1.00;18510;293;7504316;-32
2023/07/14 10:03:16;;;;;;;1.60;0.70;;;;;;;-128.00;-1.00;-1.00;18902;293;7504680;-35
2023/07/14 10:06:02;;;;;;;2.30;0.70;;;;;;;-128.00;-1.00;-1.00;18490;293;7504747;-36
2023/07/14 10:08:54;;;;;;;0.60;0.60;;;;;;;-128.00;-1.00;-1.00;18524;293;7507091;-36
2023/07/14 10:11:25;;;;;;;0.30;0.30;;;;;;;-128.00;-1.00;-1.00;18483;346;7504848;-32
2023/07/14 10:14:00;;;;;;;1.70;0.80;;;;;;;-128.00;-1.00;-1.00;18477;346;7504592;-36
2023/07/14 10:16:27;;;;;;;0.70;0.60;;;;;;;-128.00;-1.00;-1.00;18486;293;7504221;-36
2023/07/14 10:18:56;;;;;;;2.10;0.60;;;;;;;-128.00;-1.00;-1.00;18502;293;7504526;-32
2023/07/14 10:21:26;;;;;;;0.60;0.40;;;;;;;-128.00;-1.00;-1.00;18472;293;7505758;-35
2023/07/14 10:24:04;;;;;;;2.10;0.50;;;;;;;-128.00;-1.00;-1.00;18539;293;7504797;-32
2023/07/14 10:26:33;;;;;;;1.20;0.50;;;;;;;-128.00;-1.00;-1.00;18478;293;7504343;-33
2023/07/14 10:28:59;;;;;;;0.70;0.40;;;;;;;-128.00;-1.00;-1.00;18483;293;7504310;-35
2023/07/14 10:31:42;;;;;;;1.10;0.50;;;;;;;-128.00;-1.00;-1.00;18510;293;7505831;-32
2023/07/14 10:34:24;;;;;;;1.20;0.80;;;;;;;-128.00;-1.00;-1.00;18534;293;7506328;-31
2023/07/14 10:36:52;;;;;;;0.60;0.40;;;;;;;-128.00;-1.00;-1.00;18496;293;7504545;-37
2023/07/14 10:39:29;;;;;;;2.00;0.40;;;;;;;-128.00;-1.00;-1.00;18486;317;7505051;-31
2023/07/14 10:41:55;;;;;;;2.60;0.50;;;;;;;-128.00;-1.00;-1.00;18486;293;7505136;-35
2023/07/14 10:44:30;;;;;;;1.60;0.60;;;;;;;-128.00;-1.00;-1.00;18488;293;7504959;-32
2023/07/14 10:46:58;;;;;;;1.40;0.50;;;;;;;-128.00;-1.00;-1.00;18475;313;7506254;-36
2023/07/14 10:49:36;;;;;;;0.60;0.60;;;;;;;-128.00;-1.00;-1.00;18488;293;7506279;-31
2023/07/14 10:52:11;;;;;;;1.60;0.80;;;;;;;-128.00;-1.00;-1.00;18493;334;7504509;-36
2023/07/14 10:54:53;;;;;;;0.80;0.40;;;;;;;-128.00;-1.00;-1.00;18513;293;7505269;-36
2023/07/14 10:57:43;;;;;;;2.50;0.40;;;;;;;-128.00;-1.00;-1.00;18496;293;7506368;-33
2023/07/14 11:00:19;;;;;;;3.40;0.80;;;;;;;-128.00;-1.00;-1.00;18468;334;7505232;-36
2023/07/14 11:02:56;;;;;;;1.40;0.80;;;;;;;-128.00;-1.00;-1.00;18493;317;7506206;-35
2023/07/14 11:05:25;;;;;;;1.70;0.70;;;;;;;-128.00;-1.00;-1.00;18517;293;7506146;-32
2023/07/14 11:07:50;;;;;;;1.00;0.50;;;;;;;-128.00;-1.00;-1.00;18483;293;7505925;-32
2023/07/14 11:10:34;;;;;;;2.60;0.70;;;;;;;-128.00;-1.00;-1.00;18498;293;7506084;-36
2023/07/14 11:13:24;;;;;;;4.50;0.70;;;;;;;-128.00;-1.00;-1.00;18517;293;7505214;-35
2023/07/14 11:15:55;;;;;;;2.40;0.90;;;;;;;-128.00;-1.00;-1.00;18522;335;7506139;-32
2023/07/14 11:18:47;;;;;;;0.90;0.60;;;;;;;-128.00;-1.00;-1.00;18488;293;7505803;-31
2023/07/14 11:21:27;;;;;;;0.60;0.20;;;;;;;-128.00;-1.00;-1.00;18479;294;7504607;-35
2023/07/14 11:24:06;;;;;;;0.60;0.40;;;;;;;-128.00;-1.00;-1.00;18474;335;7504624;-32
2023/07/14 11:26:37;;;;;;;1.50;0.70;;;;;;;-128.00;-1.00;-1.00;18494;293;7504174;-32
2023/07/14 11:29:13;;;;;;;1.40;0.70;;;;;;;-128.00;-1.00;-1.00;18488;294;7504973;-36
2023/07/14 11:31:44;;;;;;;0.70;0.60;;;;;;;-128.00;-1.00;-1.00;18494;294;7504697;-36
2023/07/14 11:34:17;;;;;;;0.40;0.40;;;;;;;-128.00;-1.00;-1.00;18498;293;7504737;-36
2023/07/14 11:37:01;;;;;;;1.50;0.50;;;;;;;-128.00;-1.00;-1.00;18524;293;7504630;-35
2023/07/14 11:39:42;;;;;;;2.30;0.50;;;;;;;-128.00;-1.00;-1.00;18487;293;7504705;-35
2023/07/14 11:42:21;;;;;;;2.20;0.70;;;;;;;-128.00;-1.00;-1.00;18490;293;7506195;-35
2023/07/14 11:44:47;;;;;;;0.80;0.70;;;;;;;-128.00;-1.00;-1.00;18512;293;7504057;-36
2023/07/14 11:47:15;;;;;;;1.80;0.60;;;;;;;-128.00;-1.00;-1.00;18486;293;7504719;-35
2023/07/14 11:49:42;;;;;;;2.00;0.70;;;;;;;-128.00;-1.00;-1.00;18480;295;7506199;-36
2023/07/14 11:52:15;;;;;;;0.50;0.40;;;;;;;-128.00;-1.00;-1.00;18481;293;7505224;-36
2023/07/14 11:54:42;;;;;;;1.30;0.70;;;;;;;-128.00;-1.00;-1.00;18466;295;7504741;-31
2023/07/14 11:57:16;;;;;;;1.40;0.60;;;;;;;-128.00;-1.00;-1.00;18497;335;7504989;-36
2023/07/14 12:00:13;;;;;;;0.70;0.70;;;;;;;-128.00;-1.00;-1.00;18489;293;7504700;-33
2023/07/14 12:02:59;;;;;;;3.50;0.90;;;;;;;-128.00;-1.00;-1.00;18526;293;7506427;-37
2023/07/14 12:05:30;;;;;;;9.10;0.90;;;;;;;-128.00;-1.00;-1.00;18501;293;7506583;-31
2023/07/14 12:08:21;;;;;;;1.40;0.60;;;;;;;-128.00;-1.00;-1.00;18467;293;7505307;-32
2023/07/14 12:10:46;;;;;;;0.80;0.70;;;;;;;-128.00;-1.00;-1.00;18512;293;7504419;-31
2023/07/14 12:13:25;;;;;;;2.00;0.70;;;;;;;-128.00;-1.00;-1.00;18486;293;7504457;-35
2023/07/14 12:16:11;;;;;;;0.90;0.60;;;;;;;-128.00;-1.00;-1.00;18489;293;7505065;-35
2023/07/14 12:18:50;;;;;;;2.90;1.30;;;;;;;-128.00;-1.00;-1.00;18498;293;7504845;-35
2023/07/14 12:21:20;;;;;;;2.10;0.60;;;;;;;-128.00;-1.00;-1.00;18512;293;7504569;-35
2023/07/14 12:23:52;;;;;;;1.00;0.70;;;;;;;-128.00;-1.00;-1.00;18517;293;7504276;-35